Pacific - Georgia Basin: Past 24 Hour Conditions

 

Entrance Island

11:00 PM PDT 02 August 2015
Disclaimer

This table is a summary of hourly weather conditions for the past 24 hours.
Please note that these observations might not always be representative of weather conditions over their associated marine area.

Date / Time
(PDT)
Wind(knots) Conditions Visibility(km) Pressure(kPa) Air tempC) Relative humidity(%) Dew pointC) Humidex
02 August 2015
23:00 NW 4 N/A N/A 101.1 20 72 15 *
22:00 S 5 N/A N/A 101.1 20 77 15 *
21:00 calm N/A N/A 101.1 21 64 14 25
20:00 NW 1 N/A N/A 101.1 23 56 13 26
19:00 NW 3 N/A N/A 101.1 22 63 14 25
18:00 NW 2 N/A N/A 101.1 22 61 14 26
17:00 NW 3 N/A N/A 101.2 21 69 16 26
16:00 NW 4 N/A N/A 101.2 21 73 16 25
15:00 NNW 12 N/A N/A 101.3 20 72 15 24
14:00 NNW 18 N/A N/A 101.3 19 76 15 *
13:00 NNW 19 N/A N/A 101.3 19 74 14 *
12:00 NNW 15 N/A N/A 101.4 19 78 15 *
11:00 NNW 17 N/A N/A 101.4 18 77 14 *
10:00 NNW 15 N/A N/A 101.4 18 78 14 *
9:00 NNW 17 N/A N/A 101.4 19 76 14 *
8:00 NW 16 N/A N/A 101.4 19 76 14 *
7:00 NW 20 gust 25 N/A N/A 101.4 19 75 14 *
6:00 NW 20 gust 25 N/A N/A 101.3 19 71 14 *
5:00 NW 21 N/A N/A 101.3 19 73 14 *
4:00 NW 21 gust 27 N/A N/A 101.3 20 66 13 *
3:00 NW 22 N/A N/A 101.3 20 71 14 *
2:00 NW 19 gust 24 N/A N/A 101.3 21 72 15 25
1:00 NW 16 N/A N/A 101.3 21 67 15 25
0:00 NW 19 N/A N/A 101.3 21 66 15 25
01 August 2015
23:00 WNW 20 N/A N/A 101.3 23 58 14 26

Zoom-in to make a selection

Map of Pacific - Georgia Basin marine weather areas Tsawwassen Ferry Terminal Sentry Shoal - 46131 Halibut Bank - 46146 La Perouse Bank - 46206 Discovery Island Esquimalt Harbour Kelp Reefs Malahat Race Rocks Lightstation Saturna Island Sheringham Point University of Victoria Victoria Gonzales Victoria Int'l Airport Ballenas Islands Campbell River Airport Comox Airport Entrance Island Fanny Island Nanaimo Airport Sisters Islets Estevan Point Tofino Airport Grief Point Powell River Airport Sechelt Point Atkinson Sand Heads Lightstation Vancouver Harbour Vancouver Int'l Airport West Vancouver Port Alberni Howe Sound - Pam Rocks Squamish Airport
Legend:
buoy Buoy
land station Land Station

Pacific - Georgia Basin Area

Another Region

What we are doing

Date modified: